Time;durP1;ratioP1;P1;durP2;ratioP2;P2;SDS_P1;SDS_P2;PMS_P1;PMS_P2;Temp;Humidity;BMP_temperature;BMP_pressure;BME280_temperature;BME280_humidity;BME280_pressure;Samples;Min_cycle;Max_cycle;Signal;HPM_P1;HPM_P2
2022/06/09 00:00:24;;;;;;;;;;;;;;;22.48;57.69;99952.84;2088131;28;19916;-46
2022/06/09 00:01:24;;;;;;;;;;;;;;;22.48;57.59;99950.09;2084453;28;19922;-47
2022/06/09 00:02:25;;;;;;;;;;;;;;;22.47;57.70;99951.13;2091164;28;19956;-47
2022/06/09 00:03:28;;;;;;;;;;;;;;;22.47;57.71;99956.63;2083810;28;19909;-46
2022/06/09 00:04:31;;;;;;;;;;;;;;;22.46;57.69;99958.53;2084660;28;19923;-46
2022/06/09 00:05:31;;;;;;;;;;;;;;;22.47;57.54;99962.13;2085459;28;19920;-46
2022/06/09 00:06:35;;;;;;;;;;;;;;;22.47;57.66;99953.88;2091116;28;20363;-45
2022/06/09 00:07:35;;;;;;;;;;;;;;;22.47;57.52;99959.38;2090899;28;20227;-46
2022/06/09 00:08:40;;;;;;;;;;;;;;;22.47;57.50;99954.72;2093654;28;20196;-46
2022/06/09 00:09:44;;;;;;;;;;;;;;;22.46;57.48;99958.53;2075966;28;19921;-48
2022/06/09 00:10:51;;;;;;;;;;;;;;;22.47;57.60;99962.13;2078276;28;19975;-46
2022/06/09 00:11:52;;;;;;;;;;;;;;;22.48;57.49;99963.81;2084873;28;20552;-45
2022/06/09 00:12:52;;;;;;;;;;;;;;;22.46;57.62;99960.38;2077601;28;19959;-45
2022/06/09 00:13:53;;;;;;;;;;;;;;;22.46;57.61;99965.88;2078054;28;19923;-48
2022/06/09 00:14:56;;;;;;;;;;;;;;;22.47;57.39;99956.63;2077987;28;19962;-46
2022/06/09 00:15:57;;;;;;;;;;;;;;;22.47;57.53;99965.72;2084297;28;19912;-45
2022/06/09 00:16:57;;;;;;;;;;;;;;;22.47;57.42;99957.47;2084450;28;19919;-45
2022/06/09 00:17:57;;;;;;;;;;;;;;;22.47;57.60;99962.13;2084915;28;19967;-46
2022/06/09 00:18:58;;;;;;;;;;;;;;;22.47;57.67;99959.38;2083028;28;19948;-46
2022/06/09 00:19:58;;;;;;;;;;;;;;;22.47;57.53;99962.97;2077971;28;19980;-46
2022/06/09 00:20:58;;;;;;;;;;;;;;;22.47;57.39;99962.13;2077100;28;19917;-47
2022/06/09 00:21:59;;;;;;;;;;;;;;;22.46;57.38;99963.13;2079831;28;19917;-46
2022/06/09 00:22:59;;;;;;;;;;;;;;;22.46;57.46;99963.13;2076404;28;20349;-47
2022/06/09 00:24:00;;;;;;;;;;;;;;;22.47;57.44;99962.13;2079707;28;20335;-45
2022/06/09 00:25:00;;;;;;;;;;;;;;;22.46;57.39;99963.13;2076288;28;19916;-46
2022/06/09 00:26:00;;;;;;;;;;;;;;;22.47;57.64;99962.13;2078493;28;19917;-49
2022/06/09 00:27:00;;;;;;;;;;;;;;;22.46;57.52;99968.63;2081627;28;19927;-48
2022/06/09 00:28:01;;;;;;;;;;;;;;;22.46;57.39;99960.38;2076874;28;20019;-46
2022/06/09 00:29:02;;;;;;;;;;;;;;;22.46;57.37;99966.75;2085853;28;19955;-48
2022/06/09 00:30:05;;;;;;;;;;;;;;;22.47;57.37;99973.13;2084780;28;19918;-49
2022/06/09 00:31:06;;;;;;;;;;;;;;;22.46;57.32;99968.63;2083716;28;19912;-47
2022/06/09 00:32:06;;;;;;;;;;;;;;;22.46;57.61;99966.75;2083570;28;19920;-45
2022/06/09 00:33:06;;;;;;;;;;;;;;;22.45;57.39;99964.19;2084263;28;19917;-48
2022/06/09 00:34:07;;;;;;;;;;;;;;;22.45;57.40;99966.94;2080361;28;19940;-46
2022/06/09 00:35:07;;;;;;;;;;;;;;;22.45;57.45;99967.78;2080196;28;19922;-48
2022/06/09 00:36:08;;;;;;;;;;;;;;;22.45;57.32;99964.19;2078996;28;20286;-47
2022/06/09 00:37:08;;;;;;;;;;;;;;;22.45;57.34;99964.19;2085750;28;19920;-46
2022/06/09 00:38:08;;;;;;;;;;;;;;;22.44;57.38;99959.69;2079743;28;20030;-49
2022/06/09 00:39:09;;;;;;;;;;;;;;;22.44;57.45;99963.34;2081561;28;20152;-46
2022/06/09 00:40:10;;;;;;;;;;;;;;;22.44;57.48;99973.44;2080916;28;20293;-46
2022/06/09 00:41:11;;;;;;;;;;;;;;;22.43;57.34;99960.75;2077962;28;19916;-46
2022/06/09 00:42:11;;;;;;;;;;;;;;;22.45;57.53;99964.19;2081222;28;20263;-47
2022/06/09 00:43:11;;;;;;;;;;;;;;;22.44;57.30;99962.44;2084890;28;19913;-45
2022/06/09 00:44:17;;;;;;;;;;;;;;;22.43;57.25;99963.50;2083675;28;19928;-45
2022/06/09 00:45:20;;;;;;;;;;;;;;;22.44;57.43;99962.44;2081190;28;20238;-47
2022/06/09 00:46:23;;;;;;;;;;;;;;;22.44;57.40;99965.19;2085625;28;20300;-45
2022/06/09 00:47:26;;;;;;;;;;;;;;;22.43;57.26;99971.72;2087040;28;20326;-46
2022/06/09 00:48:42;;;;;;;;;;;;;;;22.44;57.42;99962.44;2086874;28;19956;-45
2022/06/09 00:49:45;;;;;;;;;;;;;;;22.43;57.25;99960.75;2080481;28;20249;-46
2022/06/09 00:50:47;;;;;;;;;;;;;;;22.44;57.32;99963.34;2085709;28;19916;-47
2022/06/09 00:51:50;;;;;;;;;;;;;;;22.43;57.33;99967.09;2086864;28;19990;-45
2022/06/09 00:52:52;;;;;;;;;;;;;;;22.44;57.34;99968.81;2085239;28;19916;-46
2022/06/09 00:53:55;;;;;;;;;;;;;;;22.43;57.40;99969.84;2086289;28;19917;-48
2022/06/09 00:54:58;;;;;;;;;;;;;;;22.43;57.23;99966.25;2085941;28;19915;-48
2022/06/09 00:56:01;;;;;;;;;;;;;;;22.45;57.40;99969.69;2087368;28;20361;-45
2022/06/09 00:57:04;;;;;;;;;;;;;;;22.44;57.27;99965.19;2086089;28;19955;-46
2022/06/09 00:58:13;;;;;;;;;;;;;;;22.44;57.17;99965.19;2089151;28;20337;-49
2022/06/09 00:59:15;;;;;;;;;;;;;;;22.44;57.15;99970.69;2084042;28;20419;-48
2022/06/09 01:00:18;;;;;;;;;;;;;;;22.44;57.35;99965.19;2087766;28;19927;-45
2022/06/09 01:01:19;;;;;;;;;;;;;;;22.44;57.39;99965.19;2085023;28;20306;-47
2022/06/09 01:02:19;;;;;;;;;;;;;;;22.43;57.24;99966.25;2086940;28;20410;-48
2022/06/09 01:03:21;;;;;;;;;;;;;;;22.44;57.41;99973.44;2083769;28;19970;-48
2022/06/09 01:04:22;;;;;;;;;;;;;;;22.44;57.38;99967.94;2085421;28;20058;-46
2022/06/09 01:05:23;;;;;;;;;;;;;;;22.42;57.24;99964.53;2084726;28;19977;-45
2022/06/09 01:06:26;;;;;;;;;;;;;;;22.43;57.32;99972.59;2082157;28;19920;-45
2022/06/09 01:07:31;;;;;;;;;;;;;;;22.43;57.30;99966.25;2083546;28;19923;-46
2022/06/09 01:08:32;;;;;;;;;;;;;;;22.42;57.41;99965.41;2084275;28;19927;-48
2022/06/09 01:09:34;;;;;;;;;;;;;;;22.42;57.40;99968.13;2082022;28;19958;-47
2022/06/09 01:10:34;;;;;;;;;;;;;;;22.43;57.22;99977.22;2085842;28;20522;-45
2022/06/09 01:11:34;;;;;;;;;;;;;;;22.43;57.34;99977.22;2083481;28;19955;-45
2022/06/09 01:12:40;;;;;;;;;;;;;;;22.42;57.38;99979.13;2083406;28;19962;-47
2022/06/09 01:13:41;;;;;;;;;;;;;;;22.42;57.35;99983.78;2087454;28;20200;-46
2022/06/09 01:14:41;;;;;;;;;;;;;;;22.41;57.17;99979.28;2077654;28;19958;-47
2022/06/09 01:15:56;;;;;;;;;;;;;;;22.41;57.17;99979.28;2076523;28;19913;-46
2022/06/09 01:16:56;;;;;;;;;;;;;;;22.41;57.12;99979.28;2086219;28;19924;-45
2022/06/09 01:18:04;;;;;;;;;;;;;;;22.41;57.32;99979.28;2085211;28;19905;-45
2022/06/09 01:19:04;;;;;;;;;;;;;;;22.40;57.14;99983.94;2085589;28;20350;-45
2022/06/09 01:20:13;;;;;;;;;;;;;;;22.41;57.21;99984.78;2087105;28;19916;-47
2022/06/09 01:21:14;;;;;;;;;;;;;;;22.41;57.21;99991.13;2084081;28;20015;-46
2022/06/09 01:22:43;;;;;;;;;;;;;;;22.40;57.26;99983.94;2086259;28;20322;-47
2022/06/09 01:23:43;;;;;;;;;;;;;;;22.42;56.99;99986.50;2084622;28;19916;-45
2022/06/09 01:25:02;;;;;;;;;;;;;;;22.41;57.20;99984.78;2084899;28;20043;-47
2022/06/09 01:26:02;;;;;;;;;;;;;;;22.41;57.10;99976.53;2085371;28;19912;-48
2022/06/09 01:27:11;;;;;;;;;;;;;;;22.41;57.23;99990.28;2083788;28;19916;-48
2022/06/09 01:28:30;;;;;;;;;;;;;;;22.41;57.05;99990.28;2080658;28;19916;-48
2022/06/09 01:29:53;;;;;;;;;;;;;;;22.41;57.00;99984.78;2087051;28;19915;-49
2022/06/09 01:30:57;;;;;;;;;;;;;;;22.41;57.18;99995.75;2080118;28;19916;-46
2022/06/09 01:32:02;;;;;;;;;;;;;;;22.41;57.09;99990.28;2088539;28;19956;-45
2022/06/09 01:33:19;;;;;;;;;;;;;;;22.41;57.15;99988.38;2085399;28;20331;-46
2022/06/09 01:34:31;;;;;;;;;;;;;;;22.41;57.19;100002.09;2085175;28;19983;-45
2022/06/09 01:35:35;;;;;;;;;;;;;;;22.41;57.07;99995.75;2086587;28;19928;-45
2022/06/09 01:36:49;;;;;;;;;;;;;;;22.41;57.08;99995.75;2089624;28;19991;-48
2022/06/09 01:37:53;;;;;;;;;;;;;;;22.41;57.07;99995.75;2081769;28;20002;-46
2022/06/09 01:38:56;;;;;;;;;;;;;;;22.40;57.26;99999.56;2086000;28;19920;-47
2022/06/09 01:39:59;;;;;;;;;;;;;;;22.39;57.07;99990.47;2085932;28;20001;-46
2022/06/09 01:40:59;;;;;;;;;;;;;;;22.40;57.06;100005.06;2077157;28;20295;-47
2022/06/09 01:41:59;;;;;;;;;;;;;;;22.40;57.01;99991.31;2077234;28;19917;-46
2022/06/09 01:43:00;;;;;;;;;;;;;;;22.40;57.10;100002.31;2087207;28;19967;-46
2022/06/09 01:44:01;;;;;;;;;;;;;;;22.40;57.18;100005.06;2075101;28;19956;-49
2022/06/09 01:45:10;;;;;;;;;;;;;;;22.39;57.09;100004.19;2077570;28;20199;-47
2022/06/09 01:46:16;;;;;;;;;;;;;;;22.39;56.93;99997.81;2084055;28;20011;-45
2022/06/09 01:47:19;;;;;;;;;;;;;;;22.39;57.13;100003.31;2085801;28;20027;-46
2022/06/09 01:48:20;;;;;;;;;;;;;;;22.38;57.06;99996.97;2086397;28;20724;-48
2022/06/09 01:49:23;;;;;;;;;;;;;;;22.39;57.14;100003.31;2084659;28;20216;-47
2022/06/09 01:50:28;;;;;;;;;;;;;;;22.38;56.99;99993.38;2084731;28;20024;-46
2022/06/09 01:51:32;;;;;;;;;;;;;;;22.39;57.05;100003.31;2086394;28;19922;-45
2022/06/09 01:52:33;;;;;;;;;;;;;;;22.38;57.04;100001.63;2083660;28;19920;-46
2022/06/09 01:53:36;;;;;;;;;;;;;;;22.38;57.07;99996.13;2087963;28;19916;-45
2022/06/09 01:54:38;;;;;;;;;;;;;;;22.38;56.98;99996.97;2083690;28;19909;-45
2022/06/09 01:55:42;;;;;;;;;;;;;;;22.38;57.19;99998.88;2083123;28;20449;-48
2022/06/09 01:56:52;;;;;;;;;;;;;;;22.37;57.16;99997.16;2093116;28;20456;-46
2022/06/09 01:57:57;;;;;;;;;;;;;;;22.37;56.96;99998.00;2085542;28;19923;-46
2022/06/09 01:59:08;;;;;;;;;;;;;;;22.38;56.98;99998.88;2087251;28;19923;-48
2022/06/09 02:00:10;;;;;;;;;;;;;;;22.39;56.90;100000.56;2076644;28;19921;-46
2022/06/09 02:01:13;;;;;;;;;;;;;;;22.38;56.99;100007.09;2088034;28;19912;-46
2022/06/09 02:02:19;;;;;;;;;;;;;;;22.38;57.06;100002.47;2089252;28;19978;-47
2022/06/09 02:03:22;;;;;;;;;;;;;;;22.38;57.07;99991.47;2078027;28;20315;-46
2022/06/09 02:04:26;;;;;;;;;;;;;;;22.38;57.05;99998.88;2086932;28;20009;-46
2022/06/09 02:05:28;;;;;;;;;;;;;;;22.37;56.83;100005.41;2086107;28;19916;-47
2022/06/09 02:06:29;;;;;;;;;;;;;;;22.38;56.89;100004.34;2085869;28;19916;-47
2022/06/09 02:07:31;;;;;;;;;;;;;;;22.38;57.04;100001.63;2084723;28;20174;-45
2022/06/09 02:08:32;;;;;;;;;;;;;;;22.38;56.89;100001.63;2087919;28;19909;-48
2022/06/09 02:09:35;;;;;;;;;;;;;;;22.38;56.89;100007.09;2088255;28;19920;-47
2022/06/09 02:10:35;;;;;;;;;;;;;;;22.38;56.88;100002.47;2084492;28;19966;-46
2022/06/09 02:11:47;;;;;;;;;;;;;;;22.38;57.05;100004.34;2083965;28;19943;-46
2022/06/09 02:12:49;;;;;;;;;;;;;;;22.38;57.05;100004.34;2085868;28;19917;-46
2022/06/09 02:13:51;;;;;;;;;;;;;;;22.38;57.08;99998.88;2085044;28;20398;-45
2022/06/09 02:14:54;;;;;;;;;;;;;;;22.37;57.03;99995.28;2086474;28;20239;-46
2022/06/09 02:15:57;;;;;;;;;;;;;;;22.38;56.88;100001.63;2083969;28;19916;-46
2022/06/09 02:16:58;;;;;;;;;;;;;;;22.37;57.05;100005.41;2088193;28;19944;-46
2022/06/09 02:18:03;;;;;;;;;;;;;;;22.37;56.91;100011.75;2086213;28;20545;-46
2022/06/09 02:19:05;;;;;;;;;;;;;;;22.37;56.88;100005.41;2085330;28;19927;-46
2022/06/09 02:20:05;;;;;;;;;;;;;;;22.37;56.92;100002.66;2087723;28;19908;-46
2022/06/09 02:21:13;;;;;;;;;;;;;;;22.37;56.82;100008.16;2084253;28;19911;-46
2022/06/09 02:22:13;;;;;;;;;;;;;;;22.37;57.00;100005.41;2080897;28;19916;-47
2022/06/09 02:23:14;;;;;;;;;;;;;;;22.35;56.94;100001.97;2082120;28;19938;-46
2022/06/09 02:24:14;;;;;;;;;;;;;;;22.35;56.99;100008.31;2077976;28;20038;-46
2022/06/09 02:25:15;;;;;;;;;;;;;;;22.36;56.89;100007.28;2081295;28;19917;-46
2022/06/09 02:26:16;;;;;;;;;;;;;;;22.36;57.02;100009.16;2078887;28;19917;-47
2022/06/09 02:27:16;;;;;;;;;;;;;;;22.36;56.90;100014.66;2079582;28;20018;-45
2022/06/09 02:28:17;;;;;;;;;;;;;;;22.35;57.01;100008.31;2080328;28;19959;-45
2022/06/09 02:29:17;;;;;;;;;;;;;;;22.36;56.86;100017.41;2078522;28;19964;-47
2022/06/09 02:30:17;;;;;;;;;;;;;;;22.35;56.87;100018.44;2082926;28;20308;-46
2022/06/09 02:31:18;;;;;;;;;;;;;;;22.34;56.95;100016.72;2078361;28;19999;-46
2022/06/09 02:32:19;;;;;;;;;;;;;;;22.36;56.92;100020.16;2077275;28;19916;-46
2022/06/09 02:33:20;;;;;;;;;;;;;;;22.35;56.78;100018.44;2084175;28;19923;-45
2022/06/09 02:34:20;;;;;;;;;;;;;;;22.35;56.86;100019.28;2084468;28;19916;-46
2022/06/09 02:35:21;;;;;;;;;;;;;;;22.35;56.71;100026.69;2085199;28;19943;-45
2022/06/09 02:36:22;;;;;;;;;;;;;;;22.35;56.69;100018.44;2086117;28;20296;-47
2022/06/09 02:37:22;;;;;;;;;;;;;;;22.35;56.80;100015.69;2086861;28;19917;-46
2022/06/09 02:38:22;;;;;;;;;;;;;;;22.35;56.89;100018.44;2084796;28;19916;-46
2022/06/09 02:39:22;;;;;;;;;;;;;;;22.35;56.83;100023.94;2085920;28;19920;-46
2022/06/09 02:40:23;;;;;;;;;;;;;;;22.35;56.60;100018.44;2091085;28;19922;-47
2022/06/09 02:41:23;;;;;;;;;;;;;;;22.35;56.70;100016.56;2086425;28;19916;-47
2022/06/09 02:42:23;;;;;;;;;;;;;;;22.35;56.75;100012.94;2087158;28;19912;-46
2022/06/09 02:43:24;;;;;;;;;;;;;;;22.35;56.85;100015.69;2084775;28;20378;-46
2022/06/09 02:44:24;;;;;;;;;;;;;;;22.35;56.83;100018.44;2086265;28;20015;-46
2022/06/09 02:45:24;;;;;;;;;;;;;;;22.35;56.85;100013.81;2085013;28;19947;-47
2022/06/09 02:46:25;;;;;;;;;;;;;;;22.34;56.95;100014.84;2086746;28;19917;-46
2022/06/09 02:47:25;;;;;;;;;;;;;;;22.34;56.69;100017.59;2089021;28;20334;-46
2022/06/09 02:48:25;;;;;;;;;;;;;;;22.34;56.88;100016.72;2075140;28;19916;-46
2022/06/09 02:49:26;;;;;;;;;;;;;;;22.34;56.72;100022.22;2075229;28;19916;-45
2022/06/09 02:50:26;;;;;;;;;;;;;;;22.34;56.92;100016.72;2077274;28;19948;-46
2022/06/09 02:51:29;;;;;;;;;;;;;;;22.35;56.80;100018.44;2087317;28;19970;-46
2022/06/09 02:52:29;;;;;;;;;;;;;;;22.34;56.76;100013.97;2085890;28;19955;-46
2022/06/09 02:53:30;;;;;;;;;;;;;;;22.34;56.78;100016.72;2085723;28;19923;-46
2022/06/09 02:54:30;;;;;;;;;;;;;;;22.33;56.92;100018.59;2087048;28;20481;-46
2022/06/09 02:55:30;;;;;;;;;;;;;;;22.34;56.69;100013.97;2084501;28;19990;-46
2022/06/09 02:56:31;;;;;;;;;;;;;;;22.33;56.76;100020.50;2083299;28;19912;-47
2022/06/09 02:57:31;;;;;;;;;;;;;;;22.33;56.93;100012.25;2084001;28;19924;-46
2022/06/09 02:58:31;;;;;;;;;;;;;;;22.33;56.92;100020.50;2082133;28;20230;-45
2022/06/09 02:59:32;;;;;;;;;;;;;;;22.32;56.89;100013.28;2085048;28;20235;-48
2022/06/09 03:00:32;;;;;;;;;;;;;;;22.32;56.72;100018.75;2086675;28;19912;-45
2022/06/09 03:01:33;;;;;;;;;;;;;;;22.32;56.78;100014.16;2084689;28;19919;-46
2022/06/09 03:02:33;;;;;;;;;;;;;;;22.32;56.81;100013.28;2085074;28;19917;-46
2022/06/09 03:03:34;;;;;;;;;;;;;;;22.32;56.73;100021.50;2085634;28;20329;-46
2022/06/09 03:04:34;;;;;;;;;;;;;;;22.32;56.72;100016.03;2086773;28;19974;-47
2022/06/09 03:05:35;;;;;;;;;;;;;;;22.32;56.82;100018.75;2088533;28;20430;-46
2022/06/09 03:06:35;;;;;;;;;;;;;;;22.31;56.83;100017.06;2086022;28;20611;-45
2022/06/09 03:07:36;;;;;;;;;;;;;;;22.32;56.78;100016.03;2096112;28;19909;-44
2022/06/09 03:08:36;;;;;;;;;;;;;;;22.31;56.70;100017.06;2083368;28;19908;-46
2022/06/09 03:09:37;;;;;;;;;;;;;;;22.30;56.68;100018.97;2085569;28;19909;-46
2022/06/09 03:10:37;;;;;;;;;;;;;;;22.31;56.73;100022.56;2084206;28;19923;-46
2022/06/09 03:11:37;;;;;;;;;;;;;;;22.32;56.56;100024.25;2085575;28;19917;-46
2022/06/09 03:12:38;;;;;;;;;;;;;;;22.31;56.72;100017.06;2094983;28;20316;-46
2022/06/09 03:13:39;;;;;;;;;;;;;;;22.32;56.78;100013.28;2084932;28;20289;-46
2022/06/09 03:14:40;;;;;;;;;;;;;;;22.31;56.62;100017.91;2086442;28;19958;-45
2022/06/09 03:15:40;;;;;;;;;;;;;;;22.31;56.69;100023.41;2083884;28;19920;-46
2022/06/09 03:16:40;;;;;;;;;;;;;;;22.32;56.62;100024.25;2085869;28;19916;-45
2022/06/09 03:17:40;;;;;;;;;;;;;;;22.31;56.58;100025.31;2084784;28;19943;-46
2022/06/09 03:18:41;;;;;;;;;;;;;;;22.31;56.66;100022.56;2084480;28;20200;-46
2022/06/09 03:19:42;;;;;;;;;;;;;;;22.32;56.62;100029.75;2085496;28;19913;-46
2022/06/09 03:20:42;;;;;;;;;;;;;;;22.32;56.58;100036.13;2085843;28;20381;-45
2022/06/09 03:21:42;;;;;;;;;;;;;;;22.32;56.66;100027.00;2085607;28;19921;-45
2022/06/09 03:22:42;;;;;;;;;;;;;;;22.32;56.78;100024.25;2084414;28;19908;-47
2022/06/09 03:23:43;;;;;;;;;;;;;;;22.31;56.78;100028.06;2083962;28;19920;-45
2022/06/09 03:24:43;;;;;;;;;;;;;;;22.32;56.62;100035.25;2086164;28;19999;-46
2022/06/09 03:25:43;;;;;;;;;;;;;;;22.31;56.70;100028.06;2085015;28;19985;-47
2022/06/09 03:26:44;;;;;;;;;;;;;;;22.30;56.56;100038.19;2085114;28;20308;-47
2022/06/09 03:27:44;;;;;;;;;;;;;;;22.30;56.54;100038.19;2086680;28;19912;-46
2022/06/09 03:28:45;;;;;;;;;;;;;;;22.31;56.54;100041.78;2085281;28;19904;-46
2022/06/09 03:29:45;;;;;;;;;;;;;;;22.30;56.74;100037.34;2087335;28;19916;-46
2022/06/09 03:30:45;;;;;;;;;;;;;;;22.30;56.76;100042.81;2087004;28;19915;-46
2022/06/09 03:31:46;;;;;;;;;;;;;;;22.30;56.52;100031.84;2084757;28;19909;-45
2022/06/09 03:32:47;;;;;;;;;;;;;;;22.30;56.81;100037.34;2086522;28;20246;-46
2022/06/09 03:33:49;;;;;;;;;;;;;;;22.29;56.72;100030.97;2087548;28;19911;-46
2022/06/09 03:34:49;;;;;;;;;;;;;;;22.29;56.59;100032.84;2086586;28;19917;-50
2022/06/09 03:35:50;;;;;;;;;;;;;;;22.29;56.49;100038.34;2081992;28;19927;-48
2022/06/09 03:36:50;;;;;;;;;;;;;;;22.29;56.73;100036.44;2085454;28;19919;-47
2022/06/09 03:37:51;;;;;;;;;;;;;;;22.28;56.51;100039.38;2088060;28;19912;-46
2022/06/09 03:38:51;;;;;;;;;;;;;;;22.28;56.56;100034.75;2091258;28;20604;-46
2022/06/09 03:39:51;;;;;;;;;;;;;;;22.28;56.51;100039.38;2092213;28;19916;-49
2022/06/09 03:40:52;;;;;;;;;;;;;;;22.28;56.48;100039.38;2088189;28;19924;-45
2022/06/09 03:41:52;;;;;;;;;;;;;;;22.28;56.35;100039.38;2085210;28;19920;-47
2022/06/09 03:42:52;;;;;;;;;;;;;;;22.28;56.57;100039.38;2084811;28;19990;-45
2022/06/09 03:43:52;;;;;;;;;;;;;;;22.27;56.45;100038.53;2082839;28;19935;-45
2022/06/09 03:44:53;;;;;;;;;;;;;;;22.29;56.56;100041.09;2085932;28;20393;-48
2022/06/09 03:45:53;;;;;;;;;;;;;;;22.29;56.63;100046.56;2083725;28;20545;-45
2022/06/09 03:46:54;;;;;;;;;;;;;;;22.28;56.40;100044.88;2085840;28;20257;-46
2022/06/09 03:47:54;;;;;;;;;;;;;;;22.27;56.43;100038.53;2086228;28;20494;-45
2022/06/09 03:48:55;;;;;;;;;;;;;;;22.28;56.56;100039.38;2082745;28;19924;-48
2022/06/09 03:49:55;;;;;;;;;;;;;;;22.27;56.36;100041.28;2084866;28;20142;-49
2022/06/09 03:50:55;;;;;;;;;;;;;;;22.28;56.42;100044.88;2084593;28;20247;-46
2022/06/09 03:51:55;;;;;;;;;;;;;;;22.26;56.23;100043.16;2084418;28;19916;-49
2022/06/09 03:52:57;;;;;;;;;;;;;;;22.28;56.42;100042.13;2086500;28;19916;-45
2022/06/09 03:53:57;;;;;;;;;;;;;;;22.28;56.45;100042.13;2085325;28;19912;-46
2022/06/09 03:54:57;;;;;;;;;;;;;;;22.29;56.42;100049.31;2093797;28;20003;-45
2022/06/09 03:55:58;;;;;;;;;;;;;;;22.28;56.51;100050.38;2089152;28;19976;-49
2022/06/09 03:56:58;;;;;;;;;;;;;;;22.28;56.38;100050.38;2085144;28;20317;-45
2022/06/09 03:57:58;;;;;;;;;;;;;;;22.28;56.54;100044.88;2084666;28;19939;-48
2022/06/09 03:58:59;;;;;;;;;;;;;;;22.28;56.49;100050.38;2080259;28;19943;-47
2022/06/09 03:59:59;;;;;;;;;;;;;;;22.27;56.62;100052.25;2083123;28;19923;-47
2022/06/09 04:00:59;;;;;;;;;;;;;;;22.28;56.53;100053.13;2083428;28;19923;-45
2022/06/09 04:02:00;;;;;;;;;;;;;;;22.27;56.43;100044.03;2085320;28;19928;-46
2022/06/09 04:03:00;;;;;;;;;;;;;;;22.28;56.34;100058.59;2083610;28;20629;-46
2022/06/09 04:04:00;;;;;;;;;;;;;;;22.27;56.57;100055.00;2084630;28;20920;-46
2022/06/09 04:05:02;;;;;;;;;;;;;;;22.28;56.48;100061.34;2084434;28;19917;-46
2022/06/09 04:06:02;;;;;;;;;;;;;;;22.26;56.39;100054.13;2083431;28;19970;-46
2022/06/09 04:07:03;;;;;;;;;;;;;;;22.27;56.33;100060.50;2088034;28;20148;-46
2022/06/09 04:08:03;;;;;;;;;;;;;;;22.26;56.35;100059.63;2082868;28;20407;-48
2022/06/09 04:09:04;;;;;;;;;;;;;;;22.26;56.50;100056.03;2074307;28;20247;-46
2022/06/09 04:10:05;;;;;;;;;;;;;;;22.26;56.33;100065.09;2079030;28;20506;-45
2022/06/09 04:11:05;;;;;;;;;;;;;;;22.25;56.37;100060.66;2093081;28;20279;-46
2022/06/09 04:12:06;;;;;;;;;;;;;;;22.25;56.35;100062.56;2090669;28;19962;-47
2022/06/09 04:13:06;;;;;;;;;;;;;;;22.24;56.39;100058.97;2090083;28;20723;-47
2022/06/09 04:14:06;;;;;;;;;;;;;;;22.25;56.29;100066.16;2084595;28;19916;-49
2022/06/09 04:15:07;;;;;;;;;;;;;;;22.25;56.34;100063.41;2084526;28;20752;-46
2022/06/09 04:16:19;;;;;;;;;;;;;;;22.23;56.41;100059.97;2087367;28;20189;-47
2022/06/09 04:17:20;;;;;;;;;;;;;;;22.23;56.38;100065.47;2090092;28;20007;-46
2022/06/09 04:18:20;;;;;;;;;;;;;;;22.24;56.39;100061.69;2088471;28;19916;-46
2022/06/09 04:19:20;;;;;;;;;;;;;;;22.23;56.32;100061.88;2088034;28;19917;-46
2022/06/09 04:20:21;;;;;;;;;;;;;;;22.24;56.44;100067.19;2081941;28;19913;-46
2022/06/09 04:21:22;;;;;;;;;;;;;;;22.24;56.31;100064.44;2088680;28;20311;-46
2022/06/09 04:22:23;;;;;;;;;;;;;;;22.23;56.38;100062.72;2087306;28;20005;-47
2022/06/09 04:23:25;;;;;;;;;;;;;;;22.24;56.36;100067.19;2087868;28;19966;-46
2022/06/09 04:24:25;;;;;;;;;;;;;;;22.25;56.36;100068.91;2087514;28;19916;-47
2022/06/09 04:25:25;;;;;;;;;;;;;;;22.23;56.24;100070.94;2094271;28;20369;-49
2022/06/09 04:26:27;;;;;;;;;;;;;;;22.23;56.31;100068.22;2089191;28;20782;-47
2022/06/09 04:27:27;;;;;;;;;;;;;;;22.24;56.25;100067.19;2087732;28;20006;-47
2022/06/09 04:28:27;;;;;;;;;;;;;;;22.24;56.39;100078.19;2086754;28;19948;-49
2022/06/09 04:29:28;;;;;;;;;;;;;;;22.25;56.27;100074.38;2086693;28;20362;-47
2022/06/09 04:30:28;;;;;;;;;;;;;;;22.25;56.38;100073.53;2087736;28;20289;-46
2022/06/09 04:31:28;;;;;;;;;;;;;;;22.23;56.37;100079.19;2086804;28;20674;-48
2022/06/09 04:32:29;;;;;;;;;;;;;;;22.24;56.41;100080.94;2088340;28;19921;-47
2022/06/09 04:33:29;;;;;;;;;;;;;;;22.24;56.39;100089.16;2077763;28;19932;-46
2022/06/09 04:34:29;;;;;;;;;;;;;;;22.23;56.38;100089.31;2078058;28;19921;-47
2022/06/09 04:35:29;;;;;;;;;;;;;;;22.24;56.39;100094.66;2088077;28;19922;-47
2022/06/09 04:36:30;;;;;;;;;;;;;;;22.24;56.29;100089.16;2086207;28;19912;-47
2022/06/09 04:38:49;;;;;;;;;;;;;;;22.23;56.16;100089.31;2089810;28;19920;-47
2022/06/09 04:39:49;;;;;;;;;;;;;;;22.22;56.39;100088.47;2092664;28;19920;-46
2022/06/09 04:40:50;;;;;;;;;;;;;;;22.22;56.23;100091.22;2089376;28;19913;-49
2022/06/09 04:41:50;;;;;;;;;;;;;;;22.23;56.20;100092.91;2087178;28;19919;-46
2022/06/09 04:42:51;;;;;;;;;;;;;;;22.22;56.34;100085.72;2087802;28;19913;-45
2022/06/09 04:43:51;;;;;;;;;;;;;;;22.21;56.39;100084.00;2085810;28;19920;-45
2022/06/09 04:44:53;;;;;;;;;;;;;;;22.22;56.21;100085.72;2088749;28;19960;-45
2022/06/09 04:45:53;;;;;;;;;;;;;;;22.22;56.25;100084.84;2088397;28;20243;-48
2022/06/09 04:46:53;;;;;;;;;;;;;;;22.22;56.26;100091.22;2086784;28;19959;-47
2022/06/09 04:47:54;;;;;;;;;;;;;;;22.20;56.49;100093.25;2085329;28;20326;-47
2022/06/09 04:48:55;;;;;;;;;;;;;;;22.22;56.35;100102.19;2086084;28;19908;-55
2022/06/09 04:49:55;;;;;;;;;;;;;;;22.21;56.36;100100.47;2081297;28;19909;-45
2022/06/09 04:50:56;;;;;;;;;;;;;;;22.22;56.36;100093.06;2088675;28;19927;-46
2022/06/09 04:51:56;;;;;;;;;;;;;;;22.20;56.36;100098.75;2087344;28;19974;-48
2022/06/09 04:52:57;;;;;;;;;;;;;;;22.21;56.17;100097.72;2078593;28;19919;-46
2022/06/09 04:53:57;;;;;;;;;;;;;;;22.20;56.17;100104.25;2083151;28;20027;-48
2022/06/09 04:54:58;;;;;;;;;;;;;;;22.20;56.17;100098.75;2079778;28;19952;-48
2022/06/09 04:55:58;;;;;;;;;;;;;;;22.20;56.36;100101.50;2086041;28;19916;-46
2022/06/09 04:56:59;;;;;;;;;;;;;;;22.20;56.13;100098.75;2094302;28;19916;-47
2022/06/09 04:57:59;;;;;;;;;;;;;;;22.21;56.17;100105.94;2087334;28;19916;-46
2022/06/09 04:58:59;;;;;;;;;;;;;;;22.20;56.19;100098.75;2088148;28;19917;-46
2022/06/09 05:00:00;;;;;;;;;;;;;;;22.22;56.17;100106.81;2085999;28;19934;-46
2022/06/09 05:01:00;;;;;;;;;;;;;;;22.21;56.12;100105.09;2086314;28;19908;-46
2022/06/09 05:02:01;;;;;;;;;;;;;;;22.21;56.19;100105.09;2087946;28;20846;-48
2022/06/09 05:03:01;;;;;;;;;;;;;;;22.21;56.31;100100.47;2090917;28;20022;-47
2022/06/09 05:04:02;;;;;;;;;;;;;;;22.20;56.12;100101.50;2088609;28;19951;-47
2022/06/09 05:05:03;;;;;;;;;;;;;;;22.21;56.16;100102.34;2086921;28;20025;-46
2022/06/09 05:06:03;;;;;;;;;;;;;;;22.20;56.12;100098.75;2087215;28;19920;-46
2022/06/09 05:07:04;;;;;;;;;;;;;;;22.21;56.27;100108.69;2086762;28;20242;-47
2022/06/09 05:08:04;;;;;;;;;;;;;;;22.21;56.14;100105.09;2087208;28;20030;-45
2022/06/09 05:09:04;;;;;;;;;;;;;;;22.20;56.27;100098.75;2087862;28;19919;-45
2022/06/09 05:10:05;;;;;;;;;;;;;;;22.21;56.17;100110.59;2083662;28;19948;-46
2022/06/09 05:11:06;;;;;;;;;;;;;;;22.21;56.14;100103.22;2089068;28;19935;-46
2022/06/09 05:12:06;;;;;;;;;;;;;;;22.21;56.26;100107.84;2091904;28;20396;-46
2022/06/09 05:13:06;;;;;;;;;;;;;;;22.20;56.29;100103.41;2093047;28;19916;-47
2022/06/09 05:14:07;;;;;;;;;;;;;;;22.21;56.24;100103.22;2096951;28;19912;-46
2022/06/09 05:15:08;;;;;;;;;;;;;;;22.20;56.21;100101.50;2087567;28;20401;-46
2022/06/09 05:16:08;;;;;;;;;;;;;;;22.21;56.10;100096.88;2087763;28;20376;-49
2022/06/09 05:17:09;;;;;;;;;;;;;;;22.19;56.25;100102.47;2090337;28;19919;-46
2022/06/09 05:18:11;;;;;;;;;;;;;;;22.20;56.28;100095.16;2090319;28;20314;-46
2022/06/09 05:19:11;;;;;;;;;;;;;;;22.19;56.25;100094.25;2087421;28;19927;-49
2022/06/09 05:20:13;;;;;;;;;;;;;;;22.18;56.16;100100.78;2089077;28;19920;-47